createdAt,value
2022-09-24T00:00:02.067Z,30.4
2022-09-24T00:02:18.500Z,30.1
2022-09-24T00:04:35.697Z,30.5
2022-09-24T00:06:52.119Z,30.7
2022-09-24T00:09:07.930Z,32.4
2022-09-24T00:11:24.688Z,30.4
2022-09-24T00:13:41.512Z,30.5
2022-09-24T00:15:58.514Z,29.9
2022-09-24T00:18:15.485Z,30
2022-09-24T00:20:31.783Z,30.6
2022-09-24T00:22:47.404Z,32.1
2022-09-24T00:25:03.471Z,32.1
2022-09-24T00:27:19.401Z,32.2
2022-09-24T00:29:36.227Z,30.4
2022-09-24T00:31:53.034Z,30.2
2022-09-24T00:34:10.094Z,29.9
2022-09-24T00:36:26.724Z,30.3
2022-09-24T00:38:43.613Z,30.7
2022-09-24T00:41:00.552Z,30.8
2022-09-24T00:43:17.381Z,30.6
2022-09-24T00:45:34.408Z,30.8
2022-09-24T00:47:51.117Z,30.6
2022-09-24T00:50:08.154Z,30.6
2022-09-24T00:52:24.931Z,30.4
2022-09-24T00:54:41.848Z,30.1
2022-09-24T00:56:58.641Z,30.6
2022-09-24T00:59:15.802Z,31.1
2022-09-24T01:01:32.167Z,30.1
2022-09-24T01:03:47.747Z,32.3
2022-09-24T01:06:03.852Z,31.8
2022-09-24T01:08:20.603Z,30.2
2022-09-24T01:10:37.238Z,30.2
2022-09-24T01:12:53.817Z,30.1
2022-09-24T01:15:10.825Z,30
2022-09-24T01:17:27.626Z,30.4
2022-09-24T01:19:44.673Z,30.2
2022-09-24T01:22:01.374Z,29.6
2022-09-24T01:24:18.751Z,30.3
2022-09-24T01:26:35.518Z,29.8
2022-09-24T01:28:52.483Z,30.1
2022-09-24T01:31:08.882Z,30.1
2022-09-24T01:33:24.395Z,32.9
2022-09-24T01:35:40.764Z,33.2
2022-09-24T01:37:57.351Z,30.1
2022-09-24T01:40:13.916Z,30.2
2022-09-24T01:42:29.953Z,31.2
2022-09-24T01:44:46.670Z,30.4
2022-09-24T01:47:03.340Z,30
2022-09-24T01:49:20.048Z,29.9
2022-09-24T01:51:36.556Z,29.6
2022-09-24T01:53:52.373Z,31.6
2022-09-24T01:56:08.502Z,32.8
2022-09-24T01:58:25.007Z,30.2
2022-09-24T02:00:41.591Z,30.5
2022-09-24T02:02:57.719Z,30.9
2022-09-24T02:05:14.237Z,29.9
2022-09-24T02:07:30.261Z,32.1
2022-09-24T02:09:46.983Z,30.6
2022-09-24T02:12:02.984Z,32.7
2022-09-24T02:14:19.823Z,30.6
2022-09-24T02:16:36.270Z,30.2
2022-09-24T02:18:52.193Z,31.1
2022-09-24T02:21:08.964Z,30.3
2022-09-24T02:23:25.589Z,30.3
2022-09-24T02:25:42.182Z,29.9
2022-09-24T02:27:58.427Z,29.5
2022-09-24T02:30:14.777Z,32.1
2022-09-24T02:32:31.232Z,30.6
2022-09-24T02:34:48.006Z,29.9
2022-09-24T02:37:04.731Z,30.1
2022-09-24T02:39:21.370Z,30.2
2022-09-24T02:41:37.926Z,30.4
2022-09-24T02:43:54.099Z,29.7
2022-09-24T02:46:10.391Z,32.2
2022-09-24T02:48:26.570Z,30.2
2022-09-24T02:50:42.947Z,32.7
2022-09-24T02:52:59.393Z,30.7
2022-09-24T02:55:16.313Z,30
2022-09-24T02:57:32.562Z,29.8
2022-09-24T02:59:48.972Z,32.3
2022-09-24T03:01:10.006Z,33.2
2022-09-24T03:03:26.589Z,30.3
2022-09-24T03:05:42.942Z,30.1
2022-09-24T03:07:58.920Z,31.8
2022-09-24T03:10:15.457Z,30.5
2022-09-24T03:12:32.337Z,30.1
2022-09-24T03:14:48.677Z,30
2022-09-24T03:17:05.177Z,29.7
2022-09-24T03:19:21.649Z,29.7
2022-09-24T03:21:38.219Z,29.4
2022-09-24T03:23:54.428Z,29.7
2022-09-24T03:26:10.442Z,32.1
2022-09-24T03:28:26.756Z,30.6
2022-09-24T03:30:42.817Z,29.9
2022-09-24T03:32:59.395Z,30
2022-09-24T03:35:16.062Z,30.3
2022-09-24T03:37:32.414Z,29.8
2022-09-24T03:39:48.867Z,29.6
2022-09-24T03:42:05.382Z,29.8
2022-09-24T03:44:21.666Z,29.4
2022-09-24T03:46:37.504Z,31.9
2022-09-24T03:48:53.626Z,33.4
2022-09-24T03:51:10.161Z,30.6
2022-09-24T03:53:26.788Z,30.1
2022-09-24T03:55:43.298Z,30.1
2022-09-24T03:58:00.076Z,30.1
2022-09-24T04:00:16.389Z,30.1
2022-09-24T04:02:33.034Z,29.7
2022-09-24T04:04:49.159Z,29.8
2022-09-24T04:07:04.897Z,32.1
2022-09-24T04:09:21.173Z,32.8
2022-09-24T04:11:37.747Z,30.3
2022-09-24T04:13:54.263Z,29.8
2022-09-24T04:16:10.608Z,29.9
2022-09-24T04:18:26.669Z,31.6
2022-09-24T04:20:42.740Z,30.7
2022-09-24T04:22:59.451Z,29.6
2022-09-24T04:25:15.453Z,31
2022-09-24T04:27:31.847Z,33.1
2022-09-24T04:29:48.309Z,30.4
2022-09-24T04:32:04.974Z,30.2
2022-09-24T04:34:21.539Z,29.8
2022-09-24T04:36:38.161Z,29.9
2022-09-24T04:38:54.559Z,30.2
2022-09-24T04:41:11.183Z,30.1
2022-09-24T04:43:27.861Z,30
2022-09-24T04:45:44.233Z,29.6
2022-09-24T04:48:00.822Z,30.2
2022-09-24T04:50:17.353Z,29.6
2022-09-24T04:52:34.012Z,29.8
2022-09-24T04:54:50.573Z,30.1
2022-09-24T04:57:07.076Z,29.9
2022-09-24T04:59:22.958Z,31.7
2022-09-24T05:01:40.018Z,30.8
2022-09-24T05:03:56.281Z,30.7
2022-09-24T05:06:12.812Z,30.3
2022-09-24T05:08:28.837Z,31.8
2022-09-24T05:10:45.284Z,30.4
2022-09-24T05:13:02.264Z,29.9
2022-09-24T05:15:18.687Z,30.4
2022-09-24T05:17:35.188Z,30.2
2022-09-24T05:19:51.103Z,31.5
2022-09-24T05:22:07.825Z,33.9
2022-09-24T05:24:24.367Z,30.8
2022-09-24T05:26:40.991Z,30.5
2022-09-24T05:28:57.670Z,30.4
2022-09-24T05:33:29.753Z,33.3
2022-09-24T05:35:46.292Z,31.4
2022-09-24T05:38:03.062Z,31.6
2022-09-24T05:40:19.713Z,31.9
2022-09-24T05:42:36.671Z,32.3
2022-09-24T05:44:53.435Z,32.6
2022-09-24T05:47:10.615Z,32.8
2022-09-24T05:49:27.578Z,33.3
2022-09-24T05:51:44.498Z,32.9
2022-09-24T05:54:01.556Z,33.3
2022-09-24T05:56:18.458Z,33.1
2022-09-24T05:58:35.639Z,33.3
2022-09-24T06:00:52.603Z,32.8
2022-09-24T06:03:09.351Z,32.8
2022-09-24T06:05:25.057Z,34.4
2022-09-24T06:07:41.898Z,33.9
2022-09-24T06:09:57.972Z,32.7
2022-09-24T06:12:14.817Z,34.3
2022-09-24T06:14:32.336Z,32.8
2022-09-24T06:16:48.925Z,33
2022-09-24T06:19:06.140Z,33.1
2022-09-24T06:21:22.959Z,33.3
2022-09-24T06:23:40.066Z,32.9
2022-09-24T06:28:14.155Z,32.9
2022-09-24T06:30:30.801Z,32.9
2022-09-24T06:32:48.020Z,33.3
2022-09-24T06:35:04.764Z,33
2022-09-24T06:37:21.027Z,33.4
2022-09-24T06:39:38.596Z,33.1
2022-09-24T06:41:55.457Z,33
2022-09-24T06:44:12.469Z,33
2022-09-24T06:46:29.102Z,33
2022-09-24T06:48:45.486Z,33.1
2022-09-24T06:51:00.355Z,32.1
2022-09-24T06:53:16.355Z,33.3
2022-09-24T06:55:33.180Z,32.8
2022-09-24T06:57:50.071Z,33.2
2022-09-24T07:00:06.645Z,32.4
2022-09-24T07:02:21.760Z,33.1
2022-09-24T07:04:38.649Z,32.3
2022-09-24T07:06:55.387Z,32.9
2022-09-24T07:09:12.045Z,32.4
2022-09-24T07:11:28.634Z,32.4
2022-09-24T07:13:45.365Z,32.8
2022-09-24T07:16:01.636Z,32.2
2022-09-24T07:18:16.983Z,32.3
2022-09-24T07:20:33.562Z,32.6
2022-09-24T07:22:49.486Z,32.9
2022-09-24T07:25:06.840Z,32.5
2022-09-24T07:27:23.027Z,32.7
2022-09-24T07:29:39.627Z,33.1
2022-09-24T07:31:56.105Z,32.8
2022-09-24T07:34:11.938Z,32.6
2022-09-24T07:36:27.281Z,32.2
2022-09-24T07:38:43.914Z,32.8
2022-09-24T07:41:00.504Z,32.3
2022-09-24T07:43:16.371Z,31.1
2022-09-24T07:45:32.619Z,30.9
2022-09-24T07:47:48.591Z,30.8
2022-09-24T07:50:04.957Z,30.3
2022-09-24T07:52:20.694Z,30.9
2022-09-24T07:54:36.993Z,30.6
2022-09-24T07:56:52.687Z,30.7
2022-09-24T07:59:08.863Z,30.4
2022-09-24T08:01:24.836Z,30.8
2022-09-24T08:03:41.040Z,30.9
2022-09-24T08:05:56.860Z,30.6
2022-09-24T08:08:12.113Z,30.9
2022-09-24T08:10:27.160Z,31.9
2022-09-24T08:12:42.092Z,32.6
2022-09-24T08:14:57.216Z,32.8
2022-09-24T08:17:12.522Z,32.7
2022-09-24T08:19:28.418Z,30.9
2022-09-24T08:21:43.190Z,32.6
2022-09-24T08:23:58.349Z,32.9
2022-09-24T08:26:13.264Z,33.2
2022-09-24T08:28:28.344Z,33.4
2022-09-24T08:30:43.534Z,33.4
2022-09-24T08:32:58.636Z,33.3
2022-09-24T08:35:14.018Z,32.4
2022-09-24T08:37:29.054Z,32.6
2022-09-24T08:39:44.237Z,33
2022-09-24T08:41:59.415Z,32.5
2022-09-24T08:44:14.695Z,32.3
2022-09-24T08:46:30.024Z,33.5
2022-09-24T08:48:45.589Z,32.5
2022-09-24T08:51:01.420Z,31.1
2022-09-24T08:53:15.988Z,32.9
2022-09-24T08:55:32.331Z,31.1
2022-09-24T08:57:47.241Z,32.6
2022-09-24T09:00:02.472Z,33.2
2022-09-24T09:03:25.068Z,32.8
2022-09-24T09:05:40.398Z,33.4
2022-09-24T09:07:56.139Z,33.8
2022-09-24T09:10:38.020Z,31.1
2022-09-24T09:12:52.947Z,32.8
2022-09-24T09:15:08.058Z,33.1
2022-09-24T09:17:23.328Z,32.6
2022-09-24T09:19:38.663Z,33.3
2022-09-24T09:21:54.003Z,33.9
2022-09-24T09:24:09.084Z,33.8
2022-09-24T09:26:25.181Z,32.1
2022-09-24T09:30:56.078Z,34
2022-09-24T09:33:11.708Z,34.1
2022-09-24T09:35:27.196Z,34.3
2022-09-24T09:37:42.846Z,34.1
2022-09-24T09:39:58.598Z,34.6
2022-09-24T09:42:13.973Z,34.2
2022-09-24T09:44:29.718Z,34.1
2022-09-24T09:46:45.478Z,34.4
2022-09-24T09:49:01.256Z,34.9
2022-09-24T09:51:21.346Z,34.2
2022-09-24T09:53:32.395Z,34
2022-09-24T09:55:48.320Z,34.6
2022-09-24T09:58:03.877Z,34.6
2022-09-24T10:00:19.557Z,34.3
2022-09-24T10:02:35.463Z,34.8
2022-09-24T10:04:52.116Z,35.2
2022-09-24T10:07:06.732Z,34.7
2022-09-24T10:09:22.506Z,34.9
2022-09-24T10:11:38.543Z,34.8
2022-09-24T10:13:53.968Z,32.8
2022-09-24T10:16:10.111Z,33.9
2022-09-24T10:18:25.893Z,34.9
2022-09-24T10:20:41.824Z,34.9
2022-09-24T10:22:57.522Z,34.1
2022-09-24T10:25:13.367Z,34.8
2022-09-24T10:27:29.328Z,34.9
2022-09-24T10:29:45.146Z,34.7
2022-09-24T10:32:01.224Z,34.1
2022-09-24T10:34:17.036Z,35.1
2022-09-24T10:36:33.163Z,34.4
2022-09-24T10:38:48.918Z,34.8
2022-09-24T10:41:05.053Z,34.5
2022-09-24T10:43:20.727Z,34.5
2022-09-24T10:45:36.575Z,34.2
2022-09-24T10:47:52.604Z,34.8
2022-09-24T10:50:08.379Z,34.3
2022-09-24T10:52:24.442Z,34.9
2022-09-24T10:54:40.187Z,35
2022-09-24T10:56:55.878Z,35.4
2022-09-24T10:59:12.147Z,34.4
2022-09-24T11:01:28.323Z,35.2
2022-09-24T11:03:44.076Z,34.6
2022-09-24T11:06:00.069Z,35.2
2022-09-24T11:08:15.946Z,34.9
2022-09-24T11:10:32.667Z,34.9
2022-09-24T11:12:47.905Z,34.2
2022-09-24T11:15:03.693Z,34.4
2022-09-24T11:17:19.622Z,35.1
2022-09-24T11:19:35.341Z,35
2022-09-24T11:21:51.390Z,35.4
2022-09-24T11:24:07.268Z,35
2022-09-24T11:26:23.271Z,34.2
2022-09-24T11:28:39.146Z,33.6
2022-09-24T11:30:54.954Z,34.4
2022-09-24T11:33:10.924Z,34.4
2022-09-24T11:35:26.699Z,34.8
2022-09-24T11:37:42.855Z,35.2
2022-09-24T11:39:58.645Z,34.9
2022-09-24T11:42:14.886Z,34.4
2022-09-24T11:44:30.529Z,32.8
2022-09-24T11:46:46.129Z,34.6
2022-09-24T11:49:02.380Z,33.5
2022-09-24T11:51:17.657Z,34.8
2022-09-24T11:53:34.075Z,34.6
2022-09-24T11:55:49.793Z,35.1
2022-09-24T11:58:05.928Z,35.1
2022-09-24T12:00:21.757Z,33.6
2022-09-24T12:02:37.690Z,34.1
2022-09-24T12:04:53.361Z,34.8
2022-09-24T12:07:09.452Z,34.7
2022-09-24T12:09:25.255Z,34.9
2022-09-24T15:03:26.651Z,33.3
2022-09-24T15:05:42.629Z,33.9
2022-09-24T15:10:14.458Z,33.8
2022-09-24T15:12:30.277Z,33.5
2022-09-24T15:14:46.185Z,33.9
2022-09-24T15:17:02.060Z,33.6
2022-09-24T15:19:18.241Z,33.9
2022-09-24T15:21:34.807Z,31.9
2022-09-24T15:26:06.189Z,31.9
2022-09-24T15:28:22.714Z,31.3
2022-09-24T15:30:39.174Z,30.6
2022-09-24T15:32:55.473Z,30.9
2022-09-24T15:35:12.020Z,30.9
2022-09-24T15:37:28.239Z,31
2022-09-24T15:39:44.610Z,31.2
2022-09-24T15:42:00.896Z,30.9
2022-09-24T15:44:16.757Z,31.2
2022-09-24T15:46:33.135Z,30.8
2022-09-24T15:48:48.196Z,31.9
2022-09-24T15:51:09.141Z,32.8
2022-09-24T15:53:20.238Z,31.6
2022-09-24T15:55:36.750Z,30.6
2022-09-24T15:57:53.222Z,31.1
2022-09-24T16:00:09.449Z,30.3
2022-09-24T16:02:25.946Z,30.8
2022-09-24T16:04:42.200Z,30.8
2022-09-24T16:06:58.591Z,30.7
2022-09-24T16:09:14.997Z,30.8
2022-09-24T16:11:31.062Z,31.3
2022-09-24T16:13:46.442Z,31.8
2022-09-24T16:16:05.545Z,31.6
2022-09-24T16:18:19.924Z,32.2
2022-09-24T16:20:36.579Z,31.8
2022-09-24T16:22:52.638Z,31.6
2022-09-24T16:25:07.775Z,31.3
2022-09-24T16:27:23.589Z,32.1
2022-09-24T16:29:41.874Z,32.4
2022-09-24T16:31:57.274Z,32.1
2022-09-24T16:34:13.883Z,31.9
2022-09-24T16:36:30.611Z,31.6
2022-09-24T16:38:47.310Z,31.9
2022-09-24T16:41:04.083Z,31.6
2022-09-24T16:43:20.782Z,31.9
2022-09-24T16:45:37.540Z,32
2022-09-24T16:47:54.083Z,31.8
2022-09-24T16:50:10.838Z,31.8
2022-09-24T16:52:27.553Z,32.2
2022-09-24T16:54:43.625Z,31.8
2022-09-24T16:56:59.183Z,31.8
2022-09-24T16:59:16.090Z,31.6
2022-09-24T17:01:32.892Z,31.9
2022-09-24T17:03:49.026Z,32.2
2022-09-24T17:06:04.607Z,31.9
2022-09-24T17:08:21.589Z,31.4
2022-09-24T17:10:42.720Z,32.1
2022-09-24T17:12:55.201Z,32.1
2022-09-24T17:15:11.913Z,31.9
2022-09-24T17:17:28.512Z,31.7
2022-09-24T17:22:02.127Z,31.8
2022-09-24T17:24:21.375Z,31.7
2022-09-24T17:26:33.648Z,31.9
2022-09-24T17:28:49.448Z,31.9
2022-09-24T17:31:06.446Z,31.3
2022-09-24T17:33:43.626Z,31.7
2022-09-24T17:35:57.056Z,32.9
2022-09-24T17:38:13.964Z,31.6
2022-09-24T17:40:31.054Z,31.6
2022-09-24T17:42:47.522Z,31.7
2022-09-24T17:45:04.268Z,31.4
2022-09-24T17:47:20.397Z,31.3
2022-09-24T17:49:36.089Z,32.4
2022-09-24T17:51:52.875Z,30.9
2022-09-24T17:54:09.927Z,31.9
2022-09-24T17:56:26.497Z,32.2
2022-09-24T17:58:43.395Z,31.4
2022-09-24T18:00:59.949Z,31.3
2022-09-24T18:03:16.815Z,31.3
2022-09-24T18:05:33.402Z,31.8
2022-09-24T18:07:50.414Z,31.7
2022-09-24T18:10:06.950Z,31.9
2022-09-24T18:12:23.930Z,31.3
2022-09-24T18:14:40.514Z,31.8
2022-09-24T18:16:57.229Z,31.8
2022-09-24T18:19:13.919Z,31.9
2022-09-24T18:21:30.639Z,31.6
2022-09-24T18:23:47.403Z,31.6
2022-09-24T18:26:04.426Z,31.7
2022-09-24T18:28:21.224Z,32.1
2022-09-24T18:30:37.444Z,31.6
2022-09-24T18:32:54.980Z,31.6
2022-09-24T18:35:11.737Z,31.6
2022-09-24T18:37:28.400Z,31.9
2022-09-24T18:39:45.463Z,31.8
2022-09-24T18:42:02.262Z,31.8
2022-09-24T18:44:19.143Z,31.5
2022-09-24T18:46:36.033Z,31.6
2022-09-24T18:48:53.028Z,31.7
2022-09-24T18:51:09.772Z,31.6
2022-09-24T18:53:26.661Z,31.6
2022-09-24T18:55:43.601Z,31.6
2022-09-24T18:58:00.506Z,31.6
2022-09-24T19:00:17.305Z,31.7
2022-09-24T19:02:34.317Z,31.8
2022-09-24T19:04:51.124Z,32.1
2022-09-24T19:07:07.801Z,31.5
2022-09-24T19:09:24.920Z,31.7
2022-09-24T19:11:42.114Z,31.9
2022-09-24T19:13:58.794Z,32
2022-09-24T19:16:16.632Z,31.7
2022-09-24T19:18:32.571Z,31.6
2022-09-24T19:20:49.193Z,31.9
2022-09-24T19:23:06.100Z,31.4
2022-09-24T19:25:23.076Z,31.6
2022-09-24T19:27:39.158Z,31.4
2022-09-24T19:29:55.205Z,31.9
2022-09-24T19:32:12.086Z,31.1
2022-09-24T19:34:29.205Z,31.8
2022-09-24T19:36:45.920Z,32
2022-09-24T19:39:03.137Z,31.7
2022-09-24T19:41:19.599Z,31.6
2022-09-24T19:43:36.719Z,31.6
2022-09-24T19:45:53.411Z,31.2
2022-09-24T19:48:10.164Z,31.9
2022-09-24T19:50:27.466Z,31.8
2022-09-24T19:52:44.148Z,31.9
2022-09-24T19:55:01.224Z,31.4
2022-09-24T19:57:18.187Z,31.4
2022-09-24T19:59:34.858Z,31.4
2022-09-24T20:01:51.203Z,31.7
2022-09-24T20:04:08.824Z,31.6
2022-09-24T20:06:25.544Z,31.4
2022-09-24T20:08:42.199Z,31.5
2022-09-24T20:10:59.282Z,31.6
2022-09-24T20:13:16.106Z,31.4
2022-09-24T20:15:33.223Z,31.6
2022-09-24T20:17:49.924Z,31.8
2022-09-24T20:20:06.869Z,31.9
2022-09-24T20:22:23.622Z,31.3
2022-09-24T20:24:40.719Z,31.7
2022-09-24T20:26:57.458Z,31.5
2022-09-24T20:29:14.696Z,31.6
2022-09-24T20:31:31.409Z,31.1
2022-09-24T20:33:48.064Z,31.8
2022-09-24T20:36:13.286Z,31.5
2022-09-24T20:38:21.985Z,31.4
2022-09-24T20:40:38.996Z,31.7
2022-09-24T20:42:55.940Z,31.2
2022-09-24T20:45:12.728Z,31.8
2022-09-24T20:47:29.016Z,31.3
2022-09-24T20:49:45.958Z,31.3
2022-09-24T20:52:01.825Z,31.8
2022-09-24T20:54:18.715Z,30.8
2022-09-24T20:56:35.719Z,31.6
2022-09-24T20:58:52.600Z,31.9
2022-09-24T21:06:01.729Z,31.4
2022-09-24T21:08:18.603Z,31.1
2022-09-24T21:12:51.400Z,31.6
2022-09-24T21:15:07.146Z,32
2022-09-24T21:17:24.122Z,31.1
2022-09-24T21:19:54.179Z,31.6
2022-09-24T21:22:11.059Z,31.3
2022-09-24T21:24:31.350Z,31.6
2022-09-24T21:26:57.578Z,31.6
2022-09-24T21:29:14.557Z,31.6
2022-09-24T21:31:30.902Z,31.6
2022-09-24T21:33:46.646Z,31.8
2022-09-24T21:36:03.732Z,31.2
2022-09-24T21:38:20.683Z,31.6
2022-09-24T21:40:37.465Z,31.5
2022-09-24T21:42:53.919Z,31.7
2022-09-24T21:45:09.625Z,31.7
2022-09-24T21:47:26.840Z,30.9
2022-09-24T21:49:43.654Z,31.4
2022-09-24T21:52:00.849Z,31.5
2022-09-24T21:54:17.887Z,31.7
2022-09-24T21:56:34.781Z,31.6
2022-09-24T21:58:51.209Z,31.6
2022-09-24T22:01:06.431Z,32.1
2022-09-24T22:03:22.319Z,33.6
2022-09-24T22:05:39.311Z,31.6
2022-09-24T22:07:55.809Z,30.9
2022-09-24T22:10:11.794Z,32.3
2022-09-24T22:12:28.936Z,31.9
2022-09-24T22:14:45.352Z,31.4
2022-09-24T22:17:01.634Z,31.6
2022-09-24T22:19:17.824Z,31.3
2022-09-24T22:21:35.505Z,31.8
2022-09-24T22:23:51.693Z,31.3
2022-09-24T22:26:07.554Z,31.3
2022-09-24T22:28:24.729Z,31.4
2022-09-24T22:30:41.629Z,31.8
2022-09-24T22:32:58.738Z,31.4
2022-09-24T22:35:15.632Z,31.6
2022-09-24T22:37:32.021Z,31.4
2022-09-24T22:39:47.908Z,31.8
2022-09-24T22:42:04.854Z,31.1
2022-09-24T22:44:22.090Z,31.3
2022-09-24T22:46:38.624Z,31.4
2022-09-24T22:48:55.786Z,31.5
2022-09-24T22:51:11.941Z,31.4
2022-09-24T22:53:28.088Z,31.5
2022-09-24T22:55:47.237Z,31.6
2022-09-24T22:58:02.150Z,31.4
2022-09-24T23:00:18.384Z,31.4
2022-09-24T23:02:34.433Z,31.9
2022-09-24T23:04:50.277Z,31.8
2022-09-24T23:07:06.568Z,32.6
2022-09-24T23:09:22.266Z,32.8
2022-09-24T23:11:38.364Z,33.9
2022-09-24T23:13:55.591Z,31.4
2022-09-24T23:16:12.475Z,30.4
2022-09-24T23:18:29.704Z,30.9
2022-09-24T23:20:46.482Z,31.6
2022-09-24T23:23:03.504Z,31.3
2022-09-24T23:25:20.310Z,31.2
2022-09-24T23:27:36.861Z,31.1
2022-09-24T23:29:52.494Z,31.9
2022-09-24T23:32:08.232Z,31.4
2022-09-24T23:34:25.401Z,31.1
2022-09-24T23:36:42.375Z,31.1
2022-09-24T23:38:58.962Z,31.1
2022-09-24T23:41:14.768Z,32.5
2022-09-24T23:43:31.773Z,31.2
2022-09-24T23:45:48.217Z,30.8
2022-09-24T23:48:03.905Z,31.9
2022-09-24T23:50:19.926Z,32.6
2022-09-24T23:52:37.138Z,30.7
2022-09-24T23:54:53.907Z,30.7
2022-09-24T23:57:10.845Z,31.2
2022-09-24T23:59:28.082Z,30.9
